sensor_id;sensor_type;location;lat;lon;timestamp;temperature;humidity
58582;DHT22;44361;51.476;5.700;2023-07-29T00:00:46;18.10;99.90
58582;DHT22;44361;51.476;5.700;2023-07-29T00:03:11;18.10;99.90
58582;DHT22;44361;51.476;5.700;2023-07-29T00:05:38;18.10;99.90
58582;DHT22;44361;51.476;5.700;2023-07-29T00:08:04;18.20;99.90
58582;DHT22;44361;51.476;5.700;2023-07-29T00:10:31;18.20;99.90
58582;DHT22;44361;51.476;5.700;2023-07-29T00:12:57;18.30;99.90
58582;DHT22;44361;51.476;5.700;2023-07-29T00:15:23;18.30;99.90
58582;DHT22;44361;51.476;5.700;2023-07-29T00:17:48;18.30;99.90
58582;DHT22;44361;51.476;5.700;2023-07-29T00:20:14;18.30;99.90
58582;DHT22;44361;51.476;5.700;2023-07-29T00:22:40;18.40;99.90
58582;DHT22;44361;51.476;5.700;2023-07-29T00:25:06;18.40;99.90
58582;DHT22;44361;51.476;5.700;2023-07-29T00:27:32;18.50;99.90
58582;DHT22;44361;51.476;5.700;2023-07-29T00:29:57;18.50;99.90
58582;DHT22;44361;51.476;5.700;2023-07-29T00:32:23;18.50;99.90
58582;DHT22;44361;51.476;5.700;2023-07-29T00:34:48;18.50;99.90
58582;DHT22;44361;51.476;5.700;2023-07-29T00:37:14;18.60;99.90
58582;DHT22;44361;51.476;5.700;2023-07-29T00:39:39;18.60;99.90
58582;DHT22;44361;51.476;5.700;2023-07-29T00:42:06;18.60;99.90
58582;DHT22;44361;51.476;5.700;2023-07-29T00:44:31;18.60;99.90
58582;DHT22;44361;51.476;5.700;2023-07-29T00:46:57;18.70;99.90
58582;DHT22;44361;51.476;5.700;2023-07-29T00:49:23;18.60;99.90
58582;DHT22;44361;51.476;5.700;2023-07-29T00:51:49;18.50;99.90
58582;DHT22;44361;51.476;5.700;2023-07-29T00:54:14;18.50;99.90
58582;DHT22;44361;51.476;5.700;2023-07-29T00:56:40;18.40;99.90
58582;DHT22;44361;51.476;5.700;2023-07-29T00:59:06;18.40;99.90
58582;DHT22;44361;51.476;5.700;2023-07-29T01:01:32;18.30;99.90
58582;DHT22;44361;51.476;5.700;2023-07-29T01:03:58;18.30;99.90
58582;DHT22;44361;51.476;5.700;2023-07-29T01:06:34;18.20;99.90
58582;DHT22;44361;51.476;5.700;2023-07-29T01:09:13;18.30;99.90
58582;DHT22;44361;51.476;5.700;2023-07-29T01:11:58;18.20;99.90
58582;DHT22;44361;51.476;5.700;2023-07-29T01:14:34;18.20;99.90
58582;DHT22;44361;51.476;5.700;2023-07-29T01:17:04;18.20;99.90
58582;DHT22;44361;51.476;5.700;2023-07-29T01:22:16;18.20;99.90
58582;DHT22;44361;51.476;5.700;2023-07-29T01:24:41;18.20;99.90
58582;DHT22;44361;51.476;5.700;2023-07-29T01:27:07;18.10;99.90
58582;DHT22;44361;51.476;5.700;2023-07-29T01:29:33;18.10;99.90
58582;DHT22;44361;51.476;5.700;2023-07-29T01:32:03;18.10;99.90
58582;DHT22;44361;51.476;5.700;2023-07-29T01:34:55;18.10;99.90
58582;DHT22;44361;51.476;5.700;2023-07-29T01:37:26;18.10;99.90
58582;DHT22;44361;51.476;5.700;2023-07-29T01:39:55;18.10;99.90
58582;DHT22;44361;51.476;5.700;2023-07-29T01:42:22;18.20;99.90
58582;DHT22;44361;51.476;5.700;2023-07-29T01:44:48;18.20;99.90
58582;DHT22;44361;51.476;5.700;2023-07-29T01:47:13;18.20;99.90
58582;DHT22;44361;51.476;5.700;2023-07-29T01:49:39;18.30;99.90
58582;DHT22;44361;51.476;5.700;2023-07-29T01:52:04;18.30;99.90
58582;DHT22;44361;51.476;5.700;2023-07-29T01:54:30;18.30;99.90
58582;DHT22;44361;51.476;5.700;2023-07-29T01:56:55;18.20;99.90
58582;DHT22;44361;51.476;5.700;2023-07-29T01:59:21;18.20;99.90
58582;DHT22;44361;51.476;5.700;2023-07-29T02:01:46;18.20;99.90
58582;DHT22;44361;51.476;5.700;2023-07-29T02:04:12;18.10;99.90
58582;DHT22;44361;51.476;5.700;2023-07-29T02:06:38;18.10;99.90
58582;DHT22;44361;51.476;5.700;2023-07-29T02:09:03;18.10;99.90
58582;DHT22;44361;51.476;5.700;2023-07-29T02:11:30;18.00;99.90
58582;DHT22;44361;51.476;5.700;2023-07-29T02:13:55;17.90;99.90
58582;DHT22;44361;51.476;5.700;2023-07-29T02:16:22;17.90;99.90
58582;DHT22;44361;51.476;5.700;2023-07-29T02:18:50;17.80;99.90
58582;DHT22;44361;51.476;5.700;2023-07-29T02:21:16;17.80;99.90
58582;DHT22;44361;51.476;5.700;2023-07-29T02:23:42;17.80;99.90
58582;DHT22;44361;51.476;5.700;2023-07-29T02:26:07;17.70;99.90
58582;DHT22;44361;51.476;5.700;2023-07-29T02:28:33;17.70;99.90
58582;DHT22;44361;51.476;5.700;2023-07-29T02:31:20;17.70;99.90
58582;DHT22;44361;51.476;5.700;2023-07-29T02:33:46;17.70;99.90
58582;DHT22;44361;51.476;5.700;2023-07-29T02:36:12;17.60;99.90
58582;DHT22;44361;51.476;5.700;2023-07-29T02:38:39;17.60;99.90
58582;DHT22;44361;51.476;5.700;2023-07-29T02:41:05;17.60;99.90
58582;DHT22;44361;51.476;5.700;2023-07-29T02:43:30;17.50;99.90
58582;DHT22;44361;51.476;5.700;2023-07-29T02:45:56;17.40;99.90
58582;DHT22;44361;51.476;5.700;2023-07-29T02:48:21;17.40;99.90
58582;DHT22;44361;51.476;5.700;2023-07-29T02:50:47;17.40;99.90
58582;DHT22;44361;51.476;5.700;2023-07-29T02:53:12;17.30;99.90
58582;DHT22;44361;51.476;5.700;2023-07-29T02:55:41;17.30;99.90
58582;DHT22;44361;51.476;5.700;2023-07-29T02:58:07;17.20;99.90
58582;DHT22;44361;51.476;5.700;2023-07-29T03:00:33;17.20;99.90
58582;DHT22;44361;51.476;5.700;2023-07-29T03:02:59;17.20;99.90
58582;DHT22;44361;51.476;5.700;2023-07-29T03:05:27;17.30;99.90
58582;DHT22;44361;51.476;5.700;2023-07-29T03:07:52;17.20;99.90
58582;DHT22;44361;51.476;5.700;2023-07-29T03:10:18;17.20;99.90
58582;DHT22;44361;51.476;5.700;2023-07-29T03:12:44;17.10;99.90
58582;DHT22;44361;51.476;5.700;2023-07-29T03:15:09;17.10;99.90
58582;DHT22;44361;51.476;5.700;2023-07-29T03:17:35;17.00;99.90
58582;DHT22;44361;51.476;5.700;2023-07-29T03:20:00;17.00;99.90
58582;DHT22;44361;51.476;5.700;2023-07-29T03:22:26;17.00;99.90
58582;DHT22;44361;51.476;5.700;2023-07-29T03:24:51;17.00;99.90
58582;DHT22;44361;51.476;5.700;2023-07-29T03:27:17;16.90;99.90
58582;DHT22;44361;51.476;5.700;2023-07-29T03:29:43;16.90;99.90
58582;DHT22;44361;51.476;5.700;2023-07-29T03:32:08;16.90;99.90
58582;DHT22;44361;51.476;5.700;2023-07-29T03:34:34;16.90;99.90
58582;DHT22;44361;51.476;5.700;2023-07-29T03:37:00;16.90;99.90
58582;DHT22;44361;51.476;5.700;2023-07-29T03:39:26;16.90;99.90
58582;DHT22;44361;51.476;5.700;2023-07-29T03:41:52;16.80;99.90
58582;DHT22;44361;51.476;5.700;2023-07-29T03:44:18;16.80;99.90
58582;DHT22;44361;51.476;5.700;2023-07-29T03:46:44;16.80;99.90
58582;DHT22;44361;51.476;5.700;2023-07-29T03:49:10;16.80;99.90
58582;DHT22;44361;51.476;5.700;2023-07-29T03:51:36;16.70;99.90
58582;DHT22;44361;51.476;5.700;2023-07-29T03:54:01;16.70;99.90
58582;DHT22;44361;51.476;5.700;2023-07-29T03:56:27;16.70;99.90
58582;DHT22;44361;51.476;5.700;2023-07-29T03:58:53;16.70;99.90
58582;DHT22;44361;51.476;5.700;2023-07-29T04:01:18;16.70;99.90
58582;DHT22;44361;51.476;5.700;2023-07-29T04:03:47;16.60;99.90
58582;DHT22;44361;51.476;5.700;2023-07-29T04:06:12;16.50;99.90
58582;DHT22;44361;51.476;5.700;2023-07-29T04:08:38;16.50;99.90
58582;DHT22;44361;51.476;5.700;2023-07-29T04:11:04;16.50;99.90
58582;DHT22;44361;51.476;5.700;2023-07-29T04:13:29;16.50;99.90
58582;DHT22;44361;51.476;5.700;2023-07-29T04:15:55;16.40;99.90
58582;DHT22;44361;51.476;5.700;2023-07-29T04:18:20;16.30;99.90
58582;DHT22;44361;51.476;5.700;2023-07-29T04:20:46;16.30;99.90
58582;DHT22;44361;51.476;5.700;2023-07-29T04:23:11;16.30;99.90
58582;DHT22;44361;51.476;5.700;2023-07-29T04:25:37;16.40;99.90
58582;DHT22;44361;51.476;5.700;2023-07-29T04:28:02;16.40;99.90
58582;DHT22;44361;51.476;5.700;2023-07-29T04:30:30;16.40;99.90
58582;DHT22;44361;51.476;5.700;2023-07-29T04:32:55;16.40;99.90
58582;DHT22;44361;51.476;5.700;2023-07-29T04:35:21;16.40;99.90
58582;DHT22;44361;51.476;5.700;2023-07-29T04:37:46;16.40;99.90
58582;DHT22;44361;51.476;5.700;2023-07-29T04:40:14;16.50;99.90
58582;DHT22;44361;51.476;5.700;2023-07-29T04:42:39;16.40;99.90
58582;DHT22;44361;51.476;5.700;2023-07-29T04:45:05;16.50;99.90
58582;DHT22;44361;51.476;5.700;2023-07-29T04:47:31;16.40;99.90
58582;DHT22;44361;51.476;5.700;2023-07-29T04:49:56;16.50;99.90
58582;DHT22;44361;51.476;5.700;2023-07-29T04:52:22;16.50;99.90
58582;DHT22;44361;51.476;5.700;2023-07-29T04:54:47;16.60;99.90
58582;DHT22;44361;51.476;5.700;2023-07-29T04:57:13;16.70;99.90
58582;DHT22;44361;51.476;5.700;2023-07-29T04:59:39;16.80;99.90
58582;DHT22;44361;51.476;5.700;2023-07-29T05:02:04;16.80;99.90
58582;DHT22;44361;51.476;5.700;2023-07-29T05:04:30;16.80;99.90
58582;DHT22;44361;51.476;5.700;2023-07-29T05:06:55;16.90;99.90
58582;DHT22;44361;51.476;5.700;2023-07-29T05:09:21;16.90;99.90
58582;DHT22;44361;51.476;5.700;2023-07-29T05:11:46;16.90;99.90
58582;DHT22;44361;51.476;5.700;2023-07-29T05:14:17;16.90;99.90
58582;DHT22;44361;51.476;5.700;2023-07-29T05:16:43;17.00;99.90
58582;DHT22;44361;51.476;5.700;2023-07-29T05:19:09;17.10;99.90
58582;DHT22;44361;51.476;5.700;2023-07-29T05:21:35;17.10;99.90
58582;DHT22;44361;51.476;5.700;2023-07-29T05:24:00;17.10;99.90
58582;DHT22;44361;51.476;5.700;2023-07-29T05:26:26;17.10;99.90
58582;DHT22;44361;51.476;5.700;2023-07-29T05:28:52;17.20;99.90
58582;DHT22;44361;51.476;5.700;2023-07-29T05:31:17;17.30;99.90
58582;DHT22;44361;51.476;5.700;2023-07-29T05:33:43;17.30;99.90
58582;DHT22;44361;51.476;5.700;2023-07-29T05:36:09;17.40;99.90
58582;DHT22;44361;51.476;5.700;2023-07-29T05:38:34;17.40;99.90
58582;DHT22;44361;51.476;5.700;2023-07-29T05:41:00;17.40;99.90
58582;DHT22;44361;51.476;5.700;2023-07-29T05:43:26;17.40;99.90
58582;DHT22;44361;51.476;5.700;2023-07-29T05:45:52;17.30;99.90
58582;DHT22;44361;51.476;5.700;2023-07-29T05:48:19;17.30;99.90
58582;DHT22;44361;51.476;5.700;2023-07-29T05:50:45;17.20;99.90
58582;DHT22;44361;51.476;5.700;2023-07-29T05:53:10;17.10;99.90
58582;DHT22;44361;51.476;5.700;2023-07-29T05:55:36;17.20;99.90
58582;DHT22;44361;51.476;5.700;2023-07-29T05:58:01;17.70;99.90
58582;DHT22;44361;51.476;5.700;2023-07-29T06:00:27;18.00;99.90
58582;DHT22;44361;51.476;5.700;2023-07-29T06:02:52;18.70;99.90
58582;DHT22;44361;51.476;5.700;2023-07-29T06:05:18;19.20;99.90
58582;DHT22;44361;51.476;5.700;2023-07-29T06:07:43;19.70;99.90
58582;DHT22;44361;51.476;5.700;2023-07-29T06:10:13;20.10;99.90
58582;DHT22;44361;51.476;5.700;2023-07-29T06:12:39;20.70;99.90
58582;DHT22;44361;51.476;5.700;2023-07-29T06:15:05;21.30;99.90
58582;DHT22;44361;51.476;5.700;2023-07-29T06:17:31;21.40;99.90
58582;DHT22;44361;51.476;5.700;2023-07-29T06:19:56;21.10;99.90
58582;DHT22;44361;51.476;5.700;2023-07-29T06:22:22;20.60;99.90
58582;DHT22;44361;51.476;5.700;2023-07-29T06:24:47;20.10;99.90
58582;DHT22;44361;51.476;5.700;2023-07-29T06:27:13;19.60;99.90
58582;DHT22;44361;51.476;5.700;2023-07-29T06:29:38;19.40;99.90
58582;DHT22;44361;51.476;5.700;2023-07-29T06:32:04;19.30;99.90
58582;DHT22;44361;51.476;5.700;2023-07-29T06:34:30;19.90;99.90
58582;DHT22;44361;51.476;5.700;2023-07-29T06:36:55;20.50;99.90
58582;DHT22;44361;51.476;5.700;2023-07-29T06:39:21;21.30;99.90
58582;DHT22;44361;51.476;5.700;2023-07-29T06:41:46;21.90;99.90
58582;DHT22;44361;51.476;5.700;2023-07-29T06:44:12;22.20;99.90
58582;DHT22;44361;51.476;5.700;2023-07-29T06:46:38;22.20;99.90
58582;DHT22;44361;51.476;5.700;2023-07-29T06:49:03;22.10;99.90
58582;DHT22;44361;51.476;5.700;2023-07-29T06:51:29;21.80;99.90
58582;DHT22;44361;51.476;5.700;2023-07-29T06:54:00;21.40;99.90
58582;DHT22;44361;51.476;5.700;2023-07-29T06:56:26;21.10;99.90
58582;DHT22;44361;51.476;5.700;2023-07-29T06:58:51;20.60;99.90
58582;DHT22;44361;51.476;5.700;2023-07-29T07:01:17;21.20;99.90
58582;DHT22;44361;51.476;5.700;2023-07-29T07:03:42;21.50;99.90
58582;DHT22;44361;51.476;5.700;2023-07-29T07:06:08;22.00;99.90
58582;DHT22;44361;51.476;5.700;2023-07-29T07:08:33;21.80;99.90
58582;DHT22;44361;51.476;5.700;2023-07-29T07:10:59;21.80;99.90
58582;DHT22;44361;51.476;5.700;2023-07-29T07:13:24;21.70;99.90
58582;DHT22;44361;51.476;5.700;2023-07-29T07:15:50;21.80;99.90
58582;DHT22;44361;51.476;5.700;2023-07-29T07:18:15;21.70;99.90
58582;DHT22;44361;51.476;5.700;2023-07-29T07:20:41;21.70;99.90
58582;DHT22;44361;51.476;5.700;2023-07-29T07:23:07;21.30;99.90
58582;DHT22;44361;51.476;5.700;2023-07-29T07:25:36;21.30;99.90
58582;DHT22;44361;51.476;5.700;2023-07-29T07:28:02;21.30;99.90
58582;DHT22;44361;51.476;5.700;2023-07-29T07:30:27;21.10;99.90
58582;DHT22;44361;51.476;5.700;2023-07-29T07:32:53;21.10;99.90
58582;DHT22;44361;51.476;5.700;2023-07-29T07:35:18;20.90;99.90
58582;DHT22;44361;51.476;5.700;2023-07-29T07:37:44;21.00;99.90
58582;DHT22;44361;51.476;5.700;2023-07-29T07:40:10;20.90;99.90
58582;DHT22;44361;51.476;5.700;2023-07-29T07:42:35;20.70;99.90
58582;DHT22;44361;51.476;5.700;2023-07-29T07:45:01;20.80;99.90
58582;DHT22;44361;51.476;5.700;2023-07-29T07:47:27;21.10;99.90
58582;DHT22;44361;51.476;5.700;2023-07-29T07:49:52;21.40;99.90
58582;DHT22;44361;51.476;5.700;2023-07-29T07:52:18;21.60;99.90
58582;DHT22;44361;51.476;5.700;2023-07-29T07:54:43;21.50;99.90
58582;DHT22;44361;51.476;5.700;2023-07-29T07:57:09;21.40;99.90
58582;DHT22;44361;51.476;5.700;2023-07-29T07:59:34;21.60;99.90
58582;DHT22;44361;51.476;5.700;2023-07-29T08:02:00;21.60;99.90
58582;DHT22;44361;51.476;5.700;2023-07-29T08:04:25;21.70;99.90
58582;DHT22;44361;51.476;5.700;2023-07-29T08:06:51;22.00;99.90
58582;DHT22;44361;51.476;5.700;2023-07-29T08:09:16;22.10;99.90
58582;DHT22;44361;51.476;5.700;2023-07-29T08:11:42;21.90;99.90
58582;DHT22;44361;51.476;5.700;2023-07-29T08:14:07;22.10;99.90
58582;DHT22;44361;51.476;5.700;2023-07-29T08:16:33;22.50;99.90
58582;DHT22;44361;51.476;5.700;2023-07-29T08:18:58;22.60;99.90
58582;DHT22;44361;51.476;5.700;2023-07-29T08:21:24;22.70;99.90
58582;DHT22;44361;51.476;5.700;2023-07-29T08:23:49;22.90;99.90
58582;DHT22;44361;51.476;5.700;2023-07-29T08:26:15;22.60;99.90
58582;DHT22;44361;51.476;5.700;2023-07-29T08:28:42;22.60;99.90
58582;DHT22;44361;51.476;5.700;2023-07-29T08:31:07;22.70;99.90
58582;DHT22;44361;51.476;5.700;2023-07-29T08:33:33;22.60;99.90
58582;DHT22;44361;51.476;5.700;2023-07-29T08:35:59;22.70;99.90
58582;DHT22;44361;51.476;5.700;2023-07-29T08:38:25;22.80;99.90
58582;DHT22;44361;51.476;5.700;2023-07-29T08:41:14;22.70;99.90
58582;DHT22;44361;51.476;5.700;2023-07-29T08:46:19;22.40;99.90
58582;DHT22;44361;51.476;5.700;2023-07-29T08:48:45;22.10;99.90
58582;DHT22;44361;51.476;5.700;2023-07-29T08:51:12;22.00;99.90
58582;DHT22;44361;51.476;5.700;2023-07-29T08:53:38;22.00;99.90
58582;DHT22;44361;51.476;5.700;2023-07-29T08:56:05;21.80;99.90
58582;DHT22;44361;51.476;5.700;2023-07-29T08:58:31;22.10;99.90
58582;DHT22;44361;51.476;5.700;2023-07-29T09:00:57;22.20;99.90
58582;DHT22;44361;51.476;5.700;2023-07-29T09:03:22;22.70;99.90
58582;DHT22;44361;51.476;5.700;2023-07-29T09:05:48;23.00;99.90
58582;DHT22;44361;51.476;5.700;2023-07-29T09:08:14;22.90;99.90
58582;DHT22;44361;51.476;5.700;2023-07-29T09:10:40;22.50;99.90
58582;DHT22;44361;51.476;5.700;2023-07-29T09:13:07;22.70;99.90
58582;DHT22;44361;51.476;5.700;2023-07-29T09:15:34;23.30;99.90
58582;DHT22;44361;51.476;5.700;2023-07-29T09:18:09;23.30;99.90
58582;DHT22;44361;51.476;5.700;2023-07-29T09:20:35;23.40;99.90
58582;DHT22;44361;51.476;5.700;2023-07-29T09:23:01;23.60;99.90
58582;DHT22;44361;51.476;5.700;2023-07-29T09:25:29;24.10;99.90
58582;DHT22;44361;51.476;5.700;2023-07-29T09:28:01;24.00;99.90
58582;DHT22;44361;51.476;5.700;2023-07-29T09:30:32;23.80;99.90
58582;DHT22;44361;51.476;5.700;2023-07-29T09:32:58;23.50;99.90
58582;DHT22;44361;51.476;5.700;2023-07-29T09:35:35;23.50;99.90
58582;DHT22;44361;51.476;5.700;2023-07-29T09:38:02;23.60;99.90
58582;DHT22;44361;51.476;5.700;2023-07-29T09:40:37;23.80;99.90
58582;DHT22;44361;51.476;5.700;2023-07-29T09:43:04;23.90;99.90
58582;DHT22;44361;51.476;5.700;2023-07-29T09:45:30;24.20;99.90
58582;DHT22;44361;51.476;5.700;2023-07-29T09:47:58;24.20;99.90
58582;DHT22;44361;51.476;5.700;2023-07-29T09:50:26;24.00;99.90
58582;DHT22;44361;51.476;5.700;2023-07-29T09:52:53;24.00;99.90
58582;DHT22;44361;51.476;5.700;2023-07-29T09:55:21;24.20;99.90
58582;DHT22;44361;51.476;5.700;2023-07-29T09:57:47;24.20;99.90
58582;DHT22;44361;51.476;5.700;2023-07-29T10:00:13;24.40;99.90
58582;DHT22;44361;51.476;5.700;2023-07-29T10:02:40;24.10;99.90
58582;DHT22;44361;51.476;5.700;2023-07-29T10:05:07;23.90;99.90
58582;DHT22;44361;51.476;5.700;2023-07-29T10:07:37;23.70;99.90
58582;DHT22;44361;51.476;5.700;2023-07-29T10:10:04;23.60;99.90
58582;DHT22;44361;51.476;5.700;2023-07-29T10:12:31;23.80;99.90
58582;DHT22;44361;51.476;5.700;2023-07-29T10:15:03;23.70;99.90
58582;DHT22;44361;51.476;5.700;2023-07-29T10:17:30;24.10;99.90
58582;DHT22;44361;51.476;5.700;2023-07-29T10:19:57;24.80;99.90
58582;DHT22;44361;51.476;5.700;2023-07-29T10:22:28;25.00;99.90
58582;DHT22;44361;51.476;5.700;2023-07-29T10:24:56;24.70;99.90
58582;DHT22;44361;51.476;5.700;2023-07-29T10:27:25;24.50;99.90
58582;DHT22;44361;51.476;5.700;2023-07-29T10:29:53;24.60;99.90
58582;DHT22;44361;51.476;5.700;2023-07-29T10:32:24;24.70;99.90
58582;DHT22;44361;51.476;5.700;2023-07-29T10:34:50;24.70;99.90
58582;DHT22;44361;51.476;5.700;2023-07-29T10:37:16;25.00;99.90
58582;DHT22;44361;51.476;5.700;2023-07-29T10:39:53;25.00;99.90
58582;DHT22;44361;51.476;5.700;2023-07-29T10:42:19;24.50;99.90
58582;DHT22;44361;51.476;5.700;2023-07-29T10:44:49;24.20;99.90
58582;DHT22;44361;51.476;5.700;2023-07-29T10:47:19;24.50;99.90
58582;DHT22;44361;51.476;5.700;2023-07-29T10:49:46;24.80;99.90
58582;DHT22;44361;51.476;5.700;2023-07-29T10:52:16;25.30;99.90
58582;DHT22;44361;51.476;5.700;2023-07-29T10:54:46;25.40;99.90
58582;DHT22;44361;51.476;5.700;2023-07-29T10:57:18;25.50;99.90
58582;DHT22;44361;51.476;5.700;2023-07-29T10:59:56;25.30;99.90
58582;DHT22;44361;51.476;5.700;2023-07-29T11:02:37;25.00;99.90
58582;DHT22;44361;51.476;5.700;2023-07-29T11:05:08;24.90;99.90
58582;DHT22;44361;51.476;5.700;2023-07-29T11:07:45;25.00;99.90
58582;DHT22;44361;51.476;5.700;2023-07-29T11:10:12;24.90;99.90
58582;DHT22;44361;51.476;5.700;2023-07-29T11:17:56;25.30;99.90
58582;DHT22;44361;51.476;5.700;2023-07-29T11:20:24;25.20;99.90
58582;DHT22;44361;51.476;5.700;2023-07-29T11:22:51;25.00;99.90
58582;DHT22;44361;51.476;5.700;2023-07-29T11:25:18;25.00;99.90
58582;DHT22;44361;51.476;5.700;2023-07-29T11:27:45;25.10;99.90
58582;DHT22;44361;51.476;5.700;2023-07-29T11:30:13;25.00;99.90
58582;DHT22;44361;51.476;5.700;2023-07-29T11:32:40;24.70;99.90
58582;DHT22;44361;51.476;5.700;2023-07-29T11:35:15;24.50;99.90
58582;DHT22;44361;51.476;5.700;2023-07-29T11:37:44;24.60;99.90
58582;DHT22;44361;51.476;5.700;2023-07-29T11:40:16;25.00;99.90
58582;DHT22;44361;51.476;5.700;2023-07-29T11:42:42;25.20;99.90
58582;DHT22;44361;51.476;5.700;2023-07-29T11:45:08;25.50;99.90
58582;DHT22;44361;51.476;5.700;2023-07-29T11:47:36;25.20;99.90
58582;DHT22;44361;51.476;5.700;2023-07-29T11:50:07;24.70;99.90
58582;DHT22;44361;51.476;5.700;2023-07-29T11:52:37;24.10;99.90
58582;DHT22;44361;51.476;5.700;2023-07-29T11:55:05;23.20;99.90
58582;DHT22;44361;51.476;5.700;2023-07-29T11:57:35;21.70;99.90
58582;DHT22;44361;51.476;5.700;2023-07-29T12:00:06;20.90;99.90
58582;DHT22;44361;51.476;5.700;2023-07-29T12:02:33;20.40;99.90
58582;DHT22;44361;51.476;5.700;2023-07-29T12:05:00;20.60;99.90
58582;DHT22;44361;51.476;5.700;2023-07-29T12:07:26;21.00;99.90
58582;DHT22;44361;51.476;5.700;2023-07-29T12:09:52;21.30;99.90
58582;DHT22;44361;51.476;5.700;2023-07-29T12:12:22;21.50;99.90
58582;DHT22;44361;51.476;5.700;2023-07-29T12:14:48;21.80;99.90
58582;DHT22;44361;51.476;5.700;2023-07-29T12:17:14;21.80;99.90
58582;DHT22;44361;51.476;5.700;2023-07-29T12:19:41;21.60;99.90
58582;DHT22;44361;51.476;5.700;2023-07-29T12:22:09;21.40;99.90
58582;DHT22;44361;51.476;5.700;2023-07-29T12:24:37;21.40;99.90
58582;DHT22;44361;51.476;5.700;2023-07-29T12:27:03;21.40;99.90
58582;DHT22;44361;51.476;5.700;2023-07-29T12:29:29;21.30;99.90
58582;DHT22;44361;51.476;5.700;2023-07-29T12:32:02;21.10;99.90
58582;DHT22;44361;51.476;5.700;2023-07-29T12:34:30;20.90;99.90
58582;DHT22;44361;51.476;5.700;2023-07-29T12:36:59;20.60;99.90
58582;DHT22;44361;51.476;5.700;2023-07-29T12:39:29;20.50;99.90
58582;DHT22;44361;51.476;5.700;2023-07-29T12:41:56;20.30;99.90
58582;DHT22;44361;51.476;5.700;2023-07-29T12:44:29;20.20;99.90
58582;DHT22;44361;51.476;5.700;2023-07-29T12:46:54;20.00;99.90
58582;DHT22;44361;51.476;5.700;2023-07-29T12:49:20;19.80;99.90
58582;DHT22;44361;51.476;5.700;2023-07-29T12:51:46;19.70;99.90
58582;DHT22;44361;51.476;5.700;2023-07-29T12:54:11;19.70;99.90
58582;DHT22;44361;51.476;5.700;2023-07-29T12:56:37;19.60;99.90
58582;DHT22;44361;51.476;5.700;2023-07-29T12:59:05;19.30;99.90
58582;DHT22;44361;51.476;5.700;2023-07-29T13:01:30;18.60;99.90
58582;DHT22;44361;51.476;5.700;2023-07-29T13:03:56;18.30;99.90
58582;DHT22;44361;51.476;5.700;2023-07-29T13:06:22;18.40;99.90
58582;DHT22;44361;51.476;5.700;2023-07-29T13:08:48;18.50;99.90
58582;DHT22;44361;51.476;5.700;2023-07-29T13:11:17;18.80;99.90
58582;DHT22;44361;51.476;5.700;2023-07-29T13:13:43;19.00;99.90
58582;DHT22;44361;51.476;5.700;2023-07-29T13:16:10;19.60;99.90
58582;DHT22;44361;51.476;5.700;2023-07-29T13:18:36;20.30;99.90
58582;DHT22;44361;51.476;5.700;2023-07-29T13:21:01;21.00;99.90
58582;DHT22;44361;51.476;5.700;2023-07-29T13:23:27;21.40;99.90
58582;DHT22;44361;51.476;5.700;2023-07-29T13:25:55;21.60;99.90
58582;DHT22;44361;51.476;5.700;2023-07-29T13:28:21;21.60;99.90
58582;DHT22;44361;51.476;5.700;2023-07-29T13:30:46;21.80;99.90
58582;DHT22;44361;51.476;5.700;2023-07-29T13:33:12;22.30;99.90
58582;DHT22;44361;51.476;5.700;2023-07-29T13:35:37;22.40;99.90
58582;DHT22;44361;51.476;5.700;2023-07-29T13:38:03;22.50;99.90
58582;DHT22;44361;51.476;5.700;2023-07-29T13:40:28;22.60;99.90
58582;DHT22;44361;51.476;5.700;2023-07-29T13:42:54;22.60;99.90
58582;DHT22;44361;51.476;5.700;2023-07-29T13:45:20;22.20;99.90
58582;DHT22;44361;51.476;5.700;2023-07-29T13:47:46;22.30;99.90
58582;DHT22;44361;51.476;5.700;2023-07-29T13:50:11;22.80;99.90
58582;DHT22;44361;51.476;5.700;2023-07-29T13:52:37;22.70;99.90
58582;DHT22;44361;51.476;5.700;2023-07-29T13:55:06;22.80;99.90
58582;DHT22;44361;51.476;5.700;2023-07-29T13:57:32;22.50;99.90
58582;DHT22;44361;51.476;5.700;2023-07-29T13:59:58;22.60;99.90
58582;DHT22;44361;51.476;5.700;2023-07-29T14:02:24;22.60;99.90
58582;DHT22;44361;51.476;5.700;2023-07-29T14:04:51;22.50;99.90
58582;DHT22;44361;51.476;5.700;2023-07-29T14:07:17;22.70;99.90
58582;DHT22;44361;51.476;5.700;2023-07-29T14:09:42;22.80;99.90
58582;DHT22;44361;51.476;5.700;2023-07-29T14:12:08;23.00;99.90
58582;DHT22;44361;51.476;5.700;2023-07-29T14:14:38;23.00;99.90
58582;DHT22;44361;51.476;5.700;2023-07-29T14:17:03;23.10;99.90
58582;DHT22;44361;51.476;5.700;2023-07-29T14:19:29;23.10;99.90
58582;DHT22;44361;51.476;5.700;2023-07-29T14:21:55;23.20;99.90
58582;DHT22;44361;51.476;5.700;2023-07-29T14:24:20;23.20;99.90
58582;DHT22;44361;51.476;5.700;2023-07-29T14:26:46;23.30;99.90
58582;DHT22;44361;51.476;5.700;2023-07-29T14:29:12;22.90;99.90
58582;DHT22;44361;51.476;5.700;2023-07-29T14:31:37;22.90;99.90
58582;DHT22;44361;51.476;5.700;2023-07-29T14:34:03;23.00;99.90
58582;DHT22;44361;51.476;5.700;2023-07-29T14:36:28;23.00;99.90
58582;DHT22;44361;51.476;5.700;2023-07-29T14:38:54;23.20;99.90
58582;DHT22;44361;51.476;5.700;2023-07-29T14:41:20;23.50;99.90
58582;DHT22;44361;51.476;5.700;2023-07-29T14:43:45;23.80;99.90
58582;DHT22;44361;51.476;5.700;2023-07-29T14:46:11;24.20;99.90
58582;DHT22;44361;51.476;5.700;2023-07-29T14:48:36;24.40;99.90
58582;DHT22;44361;51.476;5.700;2023-07-29T14:51:02;24.90;99.90
58582;DHT22;44361;51.476;5.700;2023-07-29T14:53:28;24.80;99.90
58582;DHT22;44361;51.476;5.700;2023-07-29T14:55:54;24.20;99.90
58582;DHT22;44361;51.476;5.700;2023-07-29T14:58:20;24.00;99.90
58582;DHT22;44361;51.476;5.700;2023-07-29T15:00:45;24.30;99.90
58582;DHT22;44361;51.476;5.700;2023-07-29T15:03:11;24.50;99.90
58582;DHT22;44361;51.476;5.700;2023-07-29T15:05:36;24.30;99.90
58582;DHT22;44361;51.476;5.700;2023-07-29T15:08:02;24.60;99.90
58582;DHT22;44361;51.476;5.700;2023-07-29T15:10:27;24.60;99.90
58582;DHT22;44361;51.476;5.700;2023-07-29T15:12:53;24.70;99.90
58582;DHT22;44361;51.476;5.700;2023-07-29T15:15:19;24.40;99.90
58582;DHT22;44361;51.476;5.700;2023-07-29T15:17:44;24.20;99.90
58582;DHT22;44361;51.476;5.700;2023-07-29T15:20:10;23.90;99.90
58582;DHT22;44361;51.476;5.700;2023-07-29T15:22:36;23.80;99.90
58582;DHT22;44361;51.476;5.700;2023-07-29T15:25:02;23.60;99.90
58582;DHT22;44361;51.476;5.700;2023-07-29T15:27:28;23.90;99.90
58582;DHT22;44361;51.476;5.700;2023-07-29T15:29:54;24.00;99.90
58582;DHT22;44361;51.476;5.700;2023-07-29T15:32:20;24.00;99.90
58582;DHT22;44361;51.476;5.700;2023-07-29T15:34:46;24.10;99.90
58582;DHT22;44361;51.476;5.700;2023-07-29T15:37:12;24.30;99.90